Time;durP1;ratioP1;P1;durP2;ratioP2;P2;SDS_P1;SDS_P2;PMS_P1;PMS_P2;Temp;Humidity;BMP_temperature;BMP_pressure;BME280_temperature;BME280_humidity;BME280_pressure;Samples;Min_cycle;Max_cycle;Signal;HPM_P1;HPM_P2
2022/03/01 00:01:44;;;;;;;23.00;11.17;;;;;;;15.39;31.17;102821.69;5133103;27;20027;-76
2022/03/01 00:04:10;;;;;;;24.23;10.77;;;;;;;15.44;30.73;102827.84;5113351;27;20490;-76
2022/03/01 00:06:35;;;;;;;24.07;11.30;;;;;;;15.31;30.94;102835.75;5113423;27;20362;-75
2022/03/01 00:09:01;;;;;;;20.83;10.30;;;;;;;15.44;30.51;102830.50;5113340;27;20121;-75
2022/03/01 00:11:26;;;;;;;24.83;10.73;;;;;;;15.69;30.27;102833.16;5114024;27;20114;-75
2022/03/01 00:13:52;;;;;;;20.90;9.90;;;;;;;15.44;30.80;102838.41;5131259;27;20027;-75
2022/03/01 00:16:19;;;;;;;21.40;9.90;;;;;;;15.93;31.45;102844.59;5113639;27;20103;-76
2022/03/01 00:18:45;;;;;;;22.40;10.20;;;;;;;16.07;30.53;102840.19;5113948;27;20023;-75
2022/03/01 00:21:11;;;;;;;24.27;10.83;;;;;;;15.86;30.36;102851.63;5112634;27;20047;-75
2022/03/01 00:23:36;;;;;;;23.80;11.43;;;;;;;15.88;30.59;102843.72;5112840;27;20042;-75
2022/03/01 00:26:02;;;;;;;22.73;10.77;;;;;;;15.94;30.15;102849.88;5113365;27;20065;-75
2022/03/01 00:28:27;;;;;;;24.57;11.07;;;;;;;15.96;30.72;102849.00;5112324;27;20022;-76
2022/03/01 00:30:54;;;;;;;22.97;11.13;;;;;;;15.80;30.72;102848.09;5113931;27;20026;-75
2022/03/01 00:33:19;;;;;;;25.30;10.90;;;;;;;15.81;30.96;102852.50;5131440;27;20053;-75
2022/03/01 00:35:45;;;;;;;22.40;10.83;;;;;;;15.73;30.76;102848.09;5131267;27;20499;-75
2022/03/01 00:38:10;;;;;;;24.70;10.53;;;;;;;15.75;31.01;102846.31;5096663;27;20034;-75
2022/03/01 00:40:35;;;;;;;21.67;10.80;;;;;;;15.58;31.30;102845.44;5113311;27;20365;-75
2022/03/01 00:43:01;;;;;;;23.17;10.70;;;;;;;16.06;31.19;102859.53;5112573;27;20115;-75
2022/03/01 00:45:26;;;;;;;25.93;12.00;;;;;;;16.02;30.52;102849.88;5113406;27;20027;-75
2022/03/01 00:47:52;;;;;;;25.57;11.13;;;;;;;16.06;30.23;102849.00;5092571;28;20028;-75
2022/03/01 00:50:17;;;;;;;23.67;10.73;;;;;;;16.04;30.33;102840.19;5109237;28;20027;-76
2022/03/01 00:52:43;;;;;;;24.73;11.33;;;;;;;15.60;30.77;102846.31;5113651;27;20023;-75
2022/03/01 00:55:08;;;;;;;25.60;11.37;;;;;;;15.37;31.36;102841.91;5112565;27;20027;-75
2022/03/01 00:57:34;;;;;;;26.93;12.27;;;;;;;15.04;31.69;102861.13;5111838;28;20034;-75
2022/03/01 00:59:59;;;;;;;25.80;10.60;;;;;;;15.22;31.47;102848.00;5113014;27;20055;-75
2022/03/01 01:02:25;;;;;;;22.73;10.37;;;;;;;14.40;32.34;102850.25;5112556;27;20286;-75
2022/03/01 01:04:50;;;;;;;25.80;11.47;;;;;;;14.53;32.58;102847.69;5113152;27;20027;-75
2022/03/01 01:07:15;;;;;;;25.30;11.13;;;;;;;14.39;32.45;102845.84;5112565;27;20027;-75
2022/03/01 01:09:41;;;;;;;23.00;11.27;;;;;;;14.62;32.20;102839.84;5112238;28;20031;-75
2022/03/01 01:12:07;;;;;;;23.87;11.97;;;;;;;14.49;32.55;102838.88;5112755;28;20092;-75
2022/03/01 01:14:32;;;;;;;27.03;11.37;;;;;;;13.91;33.40;102847.28;5130940;27;20029;-75
2022/03/01 01:16:58;;;;;;;27.17;11.40;;;;;;;14.42;32.65;102851.16;5112067;28;20019;-75
2022/03/01 01:19:23;;;;;;;25.37;11.27;;;;;;;14.91;32.04;102852.31;5112344;28;20483;-75
2022/03/01 01:24:32;;;;;;;29.00;12.43;;;;;;;14.02;33.63;102848.22;5130161;28;20045;-75
2022/03/01 01:26:58;;;;;;;29.40;11.80;;;;;;;13.52;33.88;102846.06;5112559;28;20024;-75
2022/03/01 01:29:23;;;;;;;23.93;11.97;;;;;;;14.10;33.74;102850.06;5111768;28;20033;-75
2022/03/01 01:31:48;;;;;;;28.33;12.80;;;;;;;13.57;34.04;102841.72;5130552;27;20026;-75
2022/03/01 01:34:14;;;;;;;32.57;13.43;;;;;;;13.80;33.70;102836.66;5112360;28;20114;-75
2022/03/01 01:36:39;;;;;;;23.63;12.03;;;;;;;13.16;35.55;102836.88;5113066;28;20437;-75
2022/03/01 01:39:05;;;;;;;23.97;12.13;;;;;;;13.80;34.30;102841.06;5111687;28;20474;-75
2022/03/01 01:41:30;;;;;;;25.17;12.93;;;;;;;13.83;34.12;102841.06;5112855;28;20116;-75
2022/03/01 01:43:56;;;;;;;28.53;12.87;;;;;;;13.76;34.03;102834.88;5112716;28;20075;-75
2022/03/01 01:46:21;;;;;;;25.00;11.77;;;;;;;12.43;36.33;102843.84;5112067;27;20026;-75
2022/03/01 01:48:47;;;;;;;27.33;12.50;;;;;;;13.96;34.33;102840.31;5113328;28;20110;-76
2022/03/01 01:51:12;;;;;;;25.13;11.80;;;;;;;13.20;35.05;102839.59;5112527;28;20498;-76
2022/03/01 01:53:38;;;;;;;24.37;12.10;;;;;;;13.32;34.82;102835.31;5114425;27;20027;-76
2022/03/01 01:56:03;;;;;;;25.53;11.87;;;;;;;12.84;36.40;102837.41;5117023;27;20389;-76
2022/03/01 01:58:29;;;;;;;24.27;11.27;;;;;;;13.66;34.99;102828.66;5116264;27;20051;-76
2022/03/01 02:00:54;;;;;;;24.93;11.70;;;;;;;13.98;34.18;102835.94;5115896;27;20011;-76
2022/03/01 02:03:20;;;;;;;24.37;11.20;;;;;;;12.62;36.35;102844.97;5116332;27;20096;-76
2022/03/01 02:05:46;;;;;;;26.83;12.17;;;;;;;13.36;35.38;102832.75;5116182;27;20075;-76
2022/03/01 02:08:11;;;;;;;25.07;11.77;;;;;;;14.38;33.31;102825.69;5115631;27;20022;-76
2022/03/01 02:10:36;;;;;;;29.03;11.70;;;;;;;14.21;33.62;102827.34;5115599;27;20037;-76
2022/03/01 02:13:02;;;;;;;23.33;11.10;;;;;;;13.43;34.64;102819.69;5098884;27;20375;-76
2022/03/01 02:15:27;;;;;;;24.87;11.77;;;;;;;14.37;33.27;102820.41;5115598;27;20394;-76
2022/03/01 02:17:53;;;;;;;26.70;10.67;;;;;;;13.03;35.47;102823.63;5116257;27;20027;-76
2022/03/01 02:20:21;;;;;;;25.67;12.23;;;;;;;13.03;35.72;102815.75;5114133;27;20015;-76
2022/03/01 02:22:52;;;;;;;27.23;12.13;;;;;;;12.82;36.52;102831.25;5134411;27;20042;-76
2022/03/01 02:25:17;;;;;;;23.70;10.93;;;;;;;13.54;34.96;102820.69;5115807;27;20134;-75
2022/03/01 02:27:43;;;;;;;24.73;10.83;;;;;;;13.50;34.91;102816.25;5116042;27;20533;-75
2022/03/01 02:30:10;;;;;;;25.90;11.60;;;;;;;14.14;34.02;102812.41;5115008;27;20036;-75
2022/03/01 02:32:36;;;;;;;22.40;11.10;;;;;;;14.19;34.19;102808.94;5115498;27;20018;-75
2022/03/01 02:35:03;;;;;;;26.93;10.70;;;;;;;13.62;34.97;102813.75;5115674;27;20033;-75
2022/03/01 02:37:29;;;;;;;26.87;12.63;;;;;;;13.00;36.13;102815.72;5133986;27;20027;-75
2022/03/01 02:39:54;;;;;;;26.30;12.83;;;;;;;12.30;37.30;102815.69;5115962;27;20106;-75
2022/03/01 02:42:22;;;;;;;27.33;12.03;;;;;;;13.60;35.22;102802.34;5114723;27;20052;-75
2022/03/01 02:44:49;;;;;;;24.43;11.50;;;;;;;12.72;36.55;102812.78;5115634;27;20055;-76
2022/03/01 02:47:15;;;;;;;28.40;12.77;;;;;;;13.35;35.60;102799.50;5134462;27;20023;-75
2022/03/01 02:49:41;;;;;;;25.20;12.47;;;;;;;12.49;36.56;102806.34;5114700;27;20084;-75
2022/03/01 02:52:07;;;;;;;24.20;12.60;;;;;;;13.00;36.04;102810.47;5114627;27;20123;-75
2022/03/01 02:54:32;;;;;;;22.17;12.37;;;;;;;14.26;34.01;102799.31;5115264;27;20126;-74
2022/03/01 02:57:01;;;;;;;27.07;12.20;;;;;;;14.59;33.25;102803.00;5114992;27;20023;-75
2022/03/01 02:59:28;;;;;;;25.20;12.00;;;;;;;13.97;34.04;102802.66;5115470;27;20023;-75
2022/03/01 03:01:54;;;;;;;27.33;12.67;;;;;;;14.72;33.23;102804.81;5114494;27;20019;-75
2022/03/01 03:04:20;;;;;;;28.00;12.00;;;;;;;14.42;33.00;102801.16;5132624;27;20031;-75
2022/03/01 03:06:45;;;;;;;32.47;13.50;;;;;;;13.83;33.73;102806.91;5115626;27;20023;-75
2022/03/01 03:09:10;;;;;;;25.90;11.80;;;;;;;13.64;34.62;102801.50;5113915;27;20023;-75
2022/03/01 03:11:36;;;;;;;27.03;12.93;;;;;;;13.91;33.73;102808.72;5115084;27;20022;-75
2022/03/01 03:14:01;;;;;;;24.00;11.33;;;;;;;14.36;32.78;102806.38;5114544;27;20019;-75
2022/03/01 03:16:27;;;;;;;29.03;12.07;;;;;;;13.60;34.13;102812.88;5113653;27;20073;-75
2022/03/01 03:18:53;;;;;;;31.43;13.10;;;;;;;14.11;33.29;102809.72;5114729;27;20023;-75
2022/03/01 03:21:18;;;;;;;22.87;11.80;;;;;;;14.79;32.30;102810.13;5114489;27;20128;-75
2022/03/01 03:23:43;;;;;;;23.87;11.90;;;;;;;14.59;32.50;102813.53;5113995;27;20031;-75
2022/03/01 03:26:09;;;;;;;27.77;12.90;;;;;;;15.02;31.60;102807.56;5114910;27;20034;-75
2022/03/01 03:28:34;;;;;;;29.00;12.77;;;;;;;14.90;32.03;102806.63;5114948;27;20113;-75
2022/03/01 03:31:00;;;;;;;23.73;11.37;;;;;;;14.39;32.70;102806.38;5113210;27;20524;-75
2022/03/01 03:33:25;;;;;;;27.17;11.07;;;;;;;14.45;32.70;102809.94;5114063;27;20118;-75
2022/03/01 03:35:50;;;;;;;25.37;12.43;;;;;;;13.74;34.02;102811.22;5114086;27;20118;-75
2022/03/01 03:38:19;;;;;;;24.37;12.37;;;;;;;14.42;33.18;102811.69;5113485;27;20110;-75
2022/03/01 03:40:44;;;;;;;24.73;11.77;;;;;;;13.91;33.33;102802.59;5114704;27;20092;-75
2022/03/01 03:43:10;;;;;;;25.30;11.20;;;;;;;14.68;32.70;102807.44;5113976;27;20486;-75
2022/03/01 03:45:36;;;;;;;26.83;11.50;;;;;;;14.53;32.64;102800.31;5113625;27;20027;-75
2022/03/01 03:48:02;;;;;;;22.80;10.83;;;;;;;15.18;31.48;102800.56;5131952;27;20125;-75
2022/03/01 03:50:28;;;;;;;25.90;11.27;;;;;;;15.36;31.14;102797.97;5113682;27;20399;-75
2022/03/01 03:52:53;;;;;;;25.50;11.07;;;;;;;14.84;31.71;102803.13;5113849;27;20026;-75
2022/03/01 03:55:19;;;;;;;22.47;11.20;;;;;;;14.85;32.35;102794.34;5114120;27;20020;-75
2022/03/01 03:57:44;;;;;;;21.63;11.10;;;;;;;15.27;31.58;102798.81;5132609;27;20172;-75
2022/03/01 04:00:15;;;;;;;23.40;10.83;;;;;;;15.84;30.46;102811.22;5112759;27;20043;-75
2022/03/01 04:02:42;;;;;;;23.57;11.73;;;;;;;14.62;31.79;102795.13;5113727;27;20030;-75
2022/03/01 04:05:08;;;;;;;24.30;10.90;;;;;;;15.06;31.72;102789.13;5114708;27;20026;-75
2022/03/01 04:07:33;;;;;;;20.77;9.90;;;;;;;14.25;32.75;102781.78;5131996;27;20084;-75
2022/03/01 04:09:58;;;;;;;25.13;12.20;;;;;;;13.91;33.37;102784.19;5114642;27;20054;-75
2022/03/01 04:12:24;;;;;;;21.87;11.13;;;;;;;13.92;33.97;102780.69;5113405;27;20035;-75
2022/03/01 04:14:49;;;;;;;19.43;10.70;;;;;;;14.55;32.89;102774.91;5097190;27;20515;-75
2022/03/01 04:17:15;;;;;;;24.60;11.37;;;;;;;15.49;31.28;102784.81;5112483;27;20026;-75
2022/03/01 04:19:40;;;;;;;26.23;10.67;;;;;;;16.02;30.70;102789.22;5113350;27;20023;-75
2022/03/01 04:22:06;;;;;;;22.90;10.50;;;;;;;15.67;30.63;102781.28;5114023;27;20091;-75
2022/03/01 04:24:32;;;;;;;25.10;10.60;;;;;;;15.07;31.18;102780.38;5114816;27;20390;-76
2022/03/01 04:26:57;;;;;;;19.50;10.07;;;;;;;14.48;32.44;102786.25;5113336;27;20019;-75
2022/03/01 04:29:24;;;;;;;22.67;10.77;;;;;;;14.63;32.37;102789.03;5114253;27;20114;-75
2022/03/01 04:31:50;;;;;;;20.50;9.70;;;;;;;15.68;30.53;102777.78;5114251;27;20023;-75
2022/03/01 04:34:15;;;;;;;23.37;10.73;;;;;;;15.26;31.08;102775.13;5112967;27;20076;-75
2022/03/01 04:36:40;;;;;;;19.87;9.77;;;;;;;14.69;32.23;102775.00;5113528;27;20130;-75
2022/03/01 04:39:06;;;;;;;18.00;9.83;;;;;;;13.65;33.57;102779.59;5102272;28;20508;-75
2022/03/01 04:41:31;;;;;;;22.03;10.10;;;;;;;13.67;34.37;102780.50;5111143;27;20031;-75
2022/03/01 04:43:58;;;;;;;21.73;10.30;;;;;;;14.82;32.32;102778.53;5132557;27;20023;-75
2022/03/01 04:46:23;;;;;;;18.73;10.00;;;;;;;15.58;30.65;102780.41;5114414;27;20478;-75
2022/03/01 04:48:49;;;;;;;20.87;10.57;;;;;;;15.41;30.45;102776.91;5131620;27;20027;-75
2022/03/01 04:51:15;;;;;;;18.73;9.57;;;;;;;14.82;31.42;102776.78;5112380;27;20057;-76
2022/03/01 04:53:40;;;;;;;25.37;9.87;;;;;;;15.45;30.93;102768.09;5113510;27;20035;-75
2022/03/01 04:56:07;;;;;;;20.37;9.87;;;;;;;14.94;31.58;102768.03;5095635;27;20035;-76
2022/03/01 04:58:33;;;;;;;23.80;10.93;;;;;;;15.07;31.45;102756.66;5112930;28;20251;-76
2022/03/01 05:01:00;;;;;;;20.07;10.00;;;;;;;14.46;32.11;102754.69;5130864;27;20466;-75
2022/03/01 05:03:26;;;;;;;23.13;9.37;;;;;;;14.41;31.83;102773.09;5112678;27;20034;-75
2022/03/01 05:05:51;;;;;;;21.07;10.30;;;;;;;15.36;30.79;102765.47;5113905;27;20027;-75
2022/03/01 05:08:17;;;;;;;19.53;9.23;;;;;;;15.08;31.26;102774.25;5092266;28;20035;-75
2022/03/01 05:10:42;;;;;;;20.60;10.03;;;;;;;15.65;30.83;102765.47;5092629;28;20082;-75
2022/03/01 05:13:08;;;;;;;22.13;10.03;;;;;;;15.73;30.41;102763.72;5110492;28;20042;-74
2022/03/01 05:15:33;;;;;;;21.90;11.03;;;;;;;15.96;30.28;102757.56;5112991;28;20023;-75
2022/03/01 05:17:59;;;;;;;22.30;10.23;;;;;;;14.79;31.88;102766.25;5092783;28;20122;-75
2022/03/01 05:20:26;;;;;;;19.27;9.53;;;;;;;15.46;31.17;102761.09;5112905;28;20583;-75
2022/03/01 05:22:55;;;;;;;21.43;9.87;;;;;;;16.18;30.07;102765.44;5112300;28;20058;-75
2022/03/01 05:25:22;;;;;;;23.97;10.20;;;;;;;14.31;32.55;102770.41;5112563;28;20034;-75
2022/03/01 05:27:50;;;;;;;18.57;9.63;;;;;;;16.10;30.15;102766.31;5114975;27;20026;-75
2022/03/01 05:30:17;;;;;;;20.90;10.47;;;;;;;15.87;30.47;102768.13;5115797;27;20027;-75
2022/03/01 05:32:46;;;;;;;21.47;9.67;;;;;;;14.43;32.66;102768.69;5117090;27;20033;-75
2022/03/01 05:35:13;;;;;;;27.20;11.67;;;;;;;15.97;30.19;102759.31;5116501;27;20086;-75
2022/03/01 05:37:40;;;;;;;21.40;9.50;;;;;;;15.80;30.62;102766.38;5115963;27;20031;-75
2022/03/01 05:40:07;;;;;;;18.63;9.60;;;;;;;15.94;30.34;102764.59;5116580;27;20027;-75
2022/03/01 05:42:34;;;;;;;19.40;9.70;;;;;;;16.40;30.09;102764.47;5117093;27;20035;-76
2022/03/01 05:44:59;;;;;;;23.43;10.03;;;;;;;15.88;30.38;102769.88;5134688;27;20426;-75
2022/03/01 05:47:26;;;;;;;22.30;10.60;;;;;;;16.21;30.06;102770.69;5116799;27;20117;-76
2022/03/01 05:49:55;;;;;;;19.27;9.13;;;;;;;15.83;30.52;102769.03;5116822;27;20088;-75
2022/03/01 05:52:21;;;;;;;19.67;9.90;;;;;;;15.67;31.08;102776.88;5115598;27;20026;-75
2022/03/01 05:54:46;;;;;;;20.53;9.50;;;;;;;15.51;31.60;102769.88;5117144;27;20031;-75
2022/03/01 05:57:11;;;;;;;17.03;8.50;;;;;;;15.71;30.78;102759.31;5115535;27;20030;-75
2022/03/01 05:59:37;;;;;;;18.57;9.37;;;;;;;16.00;30.60;102759.31;5116041;27;20080;-75
2022/03/01 06:02:03;;;;;;;21.93;10.17;;;;;;;16.16;30.43;102764.56;5134887;27;20031;-75
2022/03/01 06:04:28;;;;;;;20.37;9.33;;;;;;;16.60;29.71;102758.25;5116039;27;20031;-76
2022/03/01 06:06:53;;;;;;;18.20;9.80;;;;;;;15.76;30.66;102765.47;5133792;27;20496;-75
2022/03/01 06:09:19;;;;;;;22.37;10.40;;;;;;;16.48;29.73;102771.50;5133927;27;20031;-75
2022/03/01 06:11:44;;;;;;;19.70;10.17;;;;;;;16.71;29.64;102764.34;5116498;27;20474;-75
2022/03/01 06:14:10;;;;;;;19.97;9.10;;;;;;;16.47;29.85;102780.28;5114968;27;20027;-74
2022/03/01 06:16:35;;;;;;;19.00;9.03;;;;;;;15.86;30.57;102772.50;5116533;27;20031;-75
2022/03/01 06:19:01;;;;;;;20.10;9.50;;;;;;;15.93;30.94;102776.03;5082786;28;20085;-75
2022/03/01 06:21:26;;;;;;;18.93;9.87;;;;;;;15.81;31.36;102773.41;5095105;28;20079;-75
2022/03/01 06:23:52;;;;;;;21.47;10.00;;;;;;;15.88;31.11;102780.41;5107492;28;20367;-74
2022/03/01 06:26:17;;;;;;;21.90;10.73;;;;;;;16.34;30.52;102782.97;5113449;28;20090;-74
2022/03/01 06:28:43;;;;;;;19.17;9.27;;;;;;;15.78;31.30;102782.16;5115083;28;20023;-74
2022/03/01 06:31:08;;;;;;;21.53;10.17;;;;;;;15.28;32.42;102778.66;5113790;28;20031;-74
2022/03/01 06:33:33;;;;;;;23.73;11.27;;;;;;;15.02;32.92;102771.56;5113203;27;20031;-74
2022/03/01 06:35:59;;;;;;;23.07;10.50;;;;;;;15.73;32.09;102776.91;5114198;28;20033;-74
2022/03/01 06:38:24;;;;;;;18.37;9.63;;;;;;;14.37;34.22;102776.59;5112299;28;20114;-74
2022/03/01 06:40:55;;;;;;;17.10;9.57;;;;;;;15.87;31.97;102771.66;5114430;28;20126;-75
2022/03/01 06:43:21;;;;;;;21.70;10.10;;;;;;;16.02;31.67;102783.94;5131058;28;20042;-74
2022/03/01 06:45:46;;;;;;;19.90;9.50;;;;;;;16.70;30.52;102782.81;5114415;28;20027;-75
2022/03/01 06:48:12;;;;;;;20.57;9.60;;;;;;;15.73;31.32;102792.72;5130528;28;20023;-75
2022/03/01 06:50:37;;;;;;;19.83;10.90;;;;;;;15.56;32.14;102787.44;5113114;28;20033;-75
2022/03/01 06:53:06;;;;;;;19.33;10.57;;;;;;;16.39;30.67;102794.38;5132496;28;20501;-75
2022/03/01 06:55:32;;;;;;;18.70;10.30;;;;;;;15.03;32.92;102794.41;5113700;28;20038;-75
2022/03/01 06:57:57;;;;;;;19.07;9.57;;;;;;;15.49;32.21;102798.00;5113042;28;20027;-75
2022/03/01 07:00:23;;;;;;;20.87;9.80;;;;;;;16.71;30.26;102811.84;5113480;28;20309;-75
2022/03/01 07:02:48;;;;;;;18.57;9.43;;;;;;;17.08;29.86;102819.63;5098838;28;20030;-75
2022/03/01 07:05:15;;;;;;;21.03;9.30;;;;;;;16.59;30.44;102822.47;5093379;28;20119;-75
2022/03/01 07:07:41;;;;;;;24.77;10.20;;;;;;;15.00;32.99;102810.22;5106246;28;20030;-75
2022/03/01 07:10:11;;;;;;;21.27;9.77;;;;;;;15.95;32.02;102808.56;5111953;28;20027;-75
2022/03/01 07:12:36;;;;;;;21.17;9.73;;;;;;;16.33;31.06;102810.22;5129366;27;20023;-75
2022/03/01 07:15:02;;;;;;;21.40;9.23;;;;;;;16.36;31.07;102819.91;5132331;28;20050;-75
2022/03/01 07:17:28;;;;;;;20.40;9.70;;;;;;;16.93;30.31;102804.75;5111878;28;20475;-75
2022/03/01 07:19:53;;;;;;;19.53;9.77;;;;;;;17.39;29.65;102806.22;5113833;28;20023;-75
2022/03/01 07:22:19;;;;;;;19.97;10.30;;;;;;;17.39;29.46;102806.22;5061766;27;1155346;-75
2022/03/01 07:24:44;;;;;;;18.73;9.70;;;;;;;17.03;29.90;102813.50;5131726;27;20398;-75
2022/03/01 07:27:10;;;;;;;19.43;9.63;;;;;;;16.42;31.07;102826.03;5100240;27;20064;-75
2022/03/01 07:29:36;;;;;;;17.07;9.37;;;;;;;16.34;30.92;102833.09;5114211;27;20381;-75
2022/03/01 07:32:04;;;;;;;19.50;9.80;;;;;;;16.35;31.34;102833.97;5106824;27;20079;-75
2022/03/01 07:34:30;;;;;;;17.77;9.03;;;;;;;16.18;31.54;102829.59;5115399;27;20398;-75
2022/03/01 07:36:55;;;;;;;19.30;9.33;;;;;;;15.19;32.50;102826.91;5113674;27;20311;-75
2022/03/01 07:39:21;;;;;;;21.57;10.00;;;;;;;14.86;33.77;102832.97;5106092;28;20042;-75
2022/03/01 07:41:46;;;;;;;20.23;9.50;;;;;;;15.94;31.65;102833.19;5113023;28;20024;-75
2022/03/01 07:44:11;;;;;;;13.87;8.67;;;;;;;15.58;32.32;102829.63;5103663;27;20019;-75
2022/03/01 07:46:37;;;;;;;19.77;9.43;;;;;;;16.18;31.34;102836.66;5100601;28;20020;-75
2022/03/01 07:49:03;;;;;;;18.73;8.90;;;;;;;16.14;31.36;102840.19;5113407;27;20027;-75
2022/03/01 07:51:29;;;;;;;19.93;9.03;;;;;;;15.84;31.44;102842.84;5113006;27;20023;-75
2022/03/01 07:53:54;;;;;;;22.07;9.63;;;;;;;15.03;32.89;102849.72;5103411;27;20023;-75
2022/03/01 07:56:21;;;;;;;23.13;10.17;;;;;;;15.76;31.81;102849.84;5132022;27;20075;-75
2022/03/01 07:58:47;;;;;;;19.07;9.83;;;;;;;16.41;31.13;102848.03;5113721;27;20027;-75
2022/03/01 08:01:12;;;;;;;28.17;10.57;;;;;;;16.18;30.86;102848.06;5113436;27;20030;-75
2022/03/01 08:03:38;;;;;;;23.40;10.97;;;;;;;14.85;33.46;102841.72;5114714;27;20027;-75
2022/03/01 08:06:06;;;;;;;22.93;9.93;;;;;;;16.50;31.15;102839.22;5113342;27;20177;-75
2022/03/01 08:08:32;;;;;;;22.23;10.23;;;;;;;16.09;32.33;102841.06;5131669;27;20023;-75
2022/03/01 08:10:58;;;;;;;20.97;9.53;;;;;;;15.03;33.22;102851.44;5113090;27;20074;-75
2022/03/01 08:13:24;;;;;;;21.53;10.33;;;;;;;16.85;30.67;102850.53;5112349;27;20269;-75
2022/03/01 08:15:50;;;;;;;18.60;9.20;;;;;;;17.54;29.51;102846.66;5129405;27;20064;-75
2022/03/01 08:18:15;;;;;;;19.17;10.00;;;;;;;17.19;29.87;102850.41;5112548;27;20063;-75
2022/03/01 08:20:40;;;;;;;17.13;8.93;;;;;;;17.39;29.97;102858.19;5101035;27;20073;-75
2022/03/01 08:23:06;;;;;;;19.27;9.20;;;;;;;17.03;30.35;102870.75;5130950;27;20031;-75
2022/03/01 08:25:31;;;;;;;19.20;9.63;;;;;;;15.19;32.54;102871.69;5112778;27;20023;-76
2022/03/01 08:27:57;;;;;;;18.63;9.47;;;;;;;16.88;30.61;102874.28;5130951;27;20148;-75
2022/03/01 08:30:24;;;;;;;22.10;9.73;;;;;;;16.88;30.34;102861.09;5111908;27;20023;-75
2022/03/01 08:32:49;;;;;;;22.43;8.67;;;;;;;16.62;30.60;102869.97;5088348;27;20478;-76
2022/03/01 08:35:15;;;;;;;20.27;9.27;;;;;;;16.43;31.24;102872.69;5112940;27;20026;-75
2022/03/01 08:37:41;;;;;;;17.50;9.40;;;;;;;17.13;30.19;102865.41;5113220;27;20666;-75
2022/03/01 08:40:07;;;;;;;19.03;10.33;;;;;;;17.26;30.00;102857.41;5110034;27;20049;-76
2022/03/01 08:42:33;;;;;;;20.87;9.90;;;;;;;16.51;30.79;102866.50;5113380;27;20022;-75
2022/03/01 08:44:58;;;;;;;20.90;9.20;;;;;;;17.31;29.69;102855.63;5112003;27;20031;-75
2022/03/01 08:47:25;;;;;;;16.23;9.60;;;;;;;17.34;29.63;102863.53;5112371;27;20167;-75
2022/03/01 08:49:53;;;;;;;22.93;10.13;;;;;;;16.43;31.22;102869.13;5112752;27;20035;-75
2022/03/01 08:52:18;;;;;;;18.60;9.93;;;;;;;17.24;30.07;102864.44;5112236;27;20386;-75
2022/03/01 08:54:44;;;;;;;16.07;8.63;;;;;;;17.34;30.15;102866.16;5110695;28;20027;-75
2022/03/01 08:57:09;;;;;;;19.40;10.10;;;;;;;17.99;28.65;102865.72;5108447;27;20023;-75
2022/03/01 08:59:34;;;;;;;19.97;8.53;;;;;;;18.90;27.86;102872.69;5111785;28;20019;-75
2022/03/01 09:02:00;;;;;;;17.67;9.80;;;;;;;17.91;28.41;102872.81;5130314;27;20027;-75
2022/03/01 09:04:25;;;;;;;20.27;10.10;;;;;;;17.58;29.70;102886.25;5107095;28;20062;-75
2022/03/01 09:06:50;;;;;;;18.10;8.87;;;;;;;17.24;30.23;102901.44;5112109;27;20039;-76
2022/03/01 09:09:16;;;;;;;14.93;8.30;;;;;;;16.26;31.37;102900.84;5105336;27;20035;-76
2022/03/01 09:11:41;;;;;;;17.83;9.00;;;;;;;15.99;31.67;102901.72;5131551;27;20074;-76
2022/03/01 09:14:07;;;;;;;20.33;8.83;;;;;;;15.54;32.78;102901.66;5092170;28;20027;-75
2022/03/01 09:16:32;;;;;;;20.07;9.90;;;;;;;16.82;30.88;102898.09;5107322;28;20028;-75
2022/03/01 09:18:57;;;;;;;19.67;10.07;;;;;;;17.55;30.18;102890.72;5125083;27;20107;-75
2022/03/01 09:21:23;;;;;;;26.57;9.77;;;;;;;17.42;30.20;102889.88;5112113;28;20096;-75
2022/03/01 09:23:48;;;;;;;23.37;10.23;;;;;;;17.50;30.28;102884.56;5112185;28;20019;-76
2022/03/01 09:26:15;;;;;;;20.20;10.10;;;;;;;18.17;29.76;102879.66;5091541;28;20036;-75
2022/03/01 09:28:41;;;;;;;18.53;9.37;;;;;;;17.71;30.09;102879.13;5106675;28;20399;-75
2022/03/01 09:31:07;;;;;;;17.47;9.17;;;;;;;18.25;29.79;102891.06;5111614;27;20030;-75
2022/03/01 09:33:33;;;;;;;19.23;9.70;;;;;;;18.17;29.87;102900.84;5112452;28;20033;-75
2022/03/01 09:35:59;;;;;;;17.87;8.53;;;;;;;15.86;31.93;102911.41;5111830;28;20023;-75
2022/03/01 09:38:26;;;;;;;24.17;9.80;;;;;;;16.91;31.74;102913.94;5130635;28;20069;-75
2022/03/01 09:40:52;;;;;;;20.27;10.57;;;;;;;17.78;30.22;102907.28;5111445;28;20061;-75
2022/03/01 09:43:20;;;;;;;18.60;9.00;;;;;;;18.07;30.51;102906.22;5109499;28;20482;-75
2022/03/01 09:45:45;;;;;;;18.57;9.73;;;;;;;18.44;29.73;102911.16;5109772;28;20119;-75
2022/03/01 09:48:11;;;;;;;21.90;9.70;;;;;;;18.28;30.35;102915.72;5111453;28;20285;-75
2022/03/01 09:50:36;;;;;;;18.83;9.20;;;;;;;18.20;30.41;102919.34;5111096;28;20431;-73
2022/03/01 09:53:06;;;;;;;19.77;9.93;;;;;;;18.61;30.04;102920.69;5111679;28;20042;-74
2022/03/01 09:55:31;;;;;;;25.73;9.57;;;;;;;18.48;30.23;102925.25;5127430;28;20043;-74
2022/03/01 09:57:56;;;;;;;23.43;10.97;;;;;;;18.40;29.91;102920.03;5114427;28;20065;-74
2022/03/01 10:00:23;;;;;;;21.10;10.57;;;;;;;17.75;31.58;102933.75;5109793;28;20015;-74
2022/03/01 10:02:54;;;;;;;20.40;10.00;;;;;;;17.56;32.37;102937.44;5111717;28;20484;-74
2022/03/01 10:05:31;;;;;;;19.43;10.60;;;;;;;17.71;32.92;102934.69;5110404;28;20079;-74
2022/03/01 10:08:08;;;;;;;21.73;9.80;;;;;;;17.94;31.96;102928.34;5111021;28;20027;-73
2022/03/01 10:10:42;;;;;;;20.13;10.00;;;;;;;16.58;33.49;102937.75;5110717;28;20080;-74
2022/03/01 10:13:08;;;;;;;24.67;10.70;;;;;;;16.26;34.19;102935.16;5110598;27;20019;-74
2022/03/01 10:15:33;;;;;;;22.00;10.30;;;;;;;16.84;33.35;102928.88;5115684;27;20031;-74
2022/03/01 10:18:08;;;;;;;19.30;9.13;;;;;;;16.97;33.47;102935.06;5114532;27;20474;-73
2022/03/01 10:20:33;;;;;;;20.73;11.50;;;;;;;15.73;36.12;102929.81;5133796;27;20019;-73
2022/03/01 10:22:59;;;;;;;22.97;10.23;;;;;;;17.12;34.00;102936.75;5115013;27;20484;-73
2022/03/01 10:25:26;;;;;;;24.13;11.13;;;;;;;16.83;34.30;102932.44;5132620;27;20454;-74
2022/03/01 10:27:55;;;;;;;21.07;10.60;;;;;;;16.82;34.23;102929.78;5111878;27;20031;-74
2022/03/01 10:30:30;;;;;;;22.20;10.27;;;;;;;15.96;35.46;102936.88;5109295;27;20219;-73
2022/03/01 10:33:12;;;;;;;25.13;11.00;;;;;;;15.52;36.63;102933.25;5113930;27;20027;-73
2022/03/01 10:35:43;;;;;;;21.05;10.10;;;;;;;15.86;35.96;102924.59;5115559;27;20031;-74
2022/03/01 10:38:10;;;;;;;18.90;10.33;;;;;;;15.69;36.54;102928.06;5115388;27;20034;-74
2022/03/01 10:40:38;;;;;;;23.77;11.73;;;;;;;15.16;37.07;102939.31;5133291;27;20023;-73
2022/03/01 10:43:13;;;;;;;24.57;10.87;;;;;;;15.16;37.15;102932.28;5096940;27;20037;-74
2022/03/01 10:45:44;;;;;;;24.73;10.33;;;;;;;15.65;37.01;102926.28;5129305;27;20026;-73
2022/03/01 10:48:34;;;;;;;24.87;11.37;;;;;;;15.17;37.07;102935.81;5105241;27;20023;-73
2022/03/01 10:51:08;;;;;;;24.07;11.10;;;;;;;14.59;38.80;102929.31;5114475;27;20482;-73
2022/03/01 10:53:37;;;;;;;23.43;10.67;;;;;;;15.24;37.68;102930.56;5114015;27;20019;-73
2022/03/01 10:56:05;;;;;;;23.83;12.00;;;;;;;14.78;39.25;102930.31;5114308;27;20019;-73
2022/03/01 10:58:31;;;;;;;27.87;10.83;;;;;;;15.44;36.91;102933.25;5113806;27;20023;-73
2022/03/01 11:00:56;;;;;;;21.70;10.47;;;;;;;16.09;37.21;102922.84;5112991;27;20048;-73
2022/03/01 11:03:22;;;;;;;27.77;12.80;;;;;;;14.08;40.01;102927.19;5113411;27;20115;-72
2022/03/01 11:05:48;;;;;;;22.83;10.60;;;;;;;15.67;38.31;102929.78;5132708;27;20023;-72
2022/03/01 11:08:15;;;;;;;26.20;12.47;;;;;;;15.95;38.28;102916.69;5130539;27;20034;-72
2022/03/01 11:10:42;;;;;;;25.47;11.63;;;;;;;15.38;38.91;102906.88;5110439;27;20584;-73